Time;durP1;ratioP1;P1;durP2;ratioP2;P2;SDS_P1;SDS_P2;PMS_P1;PMS_P2;Temp;Humidity;BMP_temperature;BMP_pressure;BME280_temperature;BME280_humidity;BME280_pressure;Samples;Min_cycle;Max_cycle;Signal;HPM_P1;HPM_P2
2022/12/29 00:01:16;;;;;;;6.55;5.85;;;;;;;;;;5052755;28;20049;-88
2022/12/29 00:03:46;;;;;;;18.40;12.25;;;;;;;;;;5054426;28;20045;-89
2022/12/29 00:06:12;;;;;;;9.05;8.20;;;;;;;;;;5054078;28;20044;-90
2022/12/29 00:08:40;;;;;;;8.95;8.25;;;;;;;;;;5051579;28;20049;-90
2022/12/29 00:11:07;;;;;;;10.02;9.00;;;;;;;;;;5034180;28;20045;-90
2022/12/29 00:16:17;;;;;;;15.70;12.68;;;;;;;;;;5033828;28;20052;-91
2022/12/29 00:18:44;;;;;;;12.85;11.55;;;;;;;;;;5033862;28;20103;-89
2022/12/29 00:35:10;;;;;;;9.95;8.98;;;;;;;;;;5054353;28;20056;-88
2022/12/29 00:45:50;;;;;;;8.57;7.72;;;;;;;;;;5033779;28;20052;-89
2022/12/29 00:49:29;;;;;;;7.95;7.18;;;;;;;;;;5033371;28;20053;-88
2022/12/29 00:51:03;;;;;;;8.23;7.70;;;;;;;;;;5033080;28;20045;-89
2022/12/29 00:53:29;;;;;;;7.72;7.13;;;;;;;;;;5033035;28;20410;-89
2022/12/29 00:55:57;;;;;;;4.13;3.83;;;;;;;;;;5033456;28;20454;-89
2022/12/29 00:58:24;;;;;;;11.15;6.35;;;;;;;;;;5033222;28;20491;-89
2022/12/29 01:00:50;;;;;;;6.88;6.07;;;;;;;;;;5053403;28;20107;-88
2022/12/29 01:03:16;;;;;;;7.50;6.78;;;;;;;;;;5073062;28;20048;-87
2022/12/29 01:05:43;;;;;;;12.98;6.35;;;;;;;;;;5072967;28;20048;-87
2022/12/29 01:08:10;;;;;;;6.78;6.03;;;;;;;;;;5073096;28;20052;-88
2022/12/29 01:10:35;;;;;;;5.80;5.38;;;;;;;;;;5072615;28;20563;-88
2022/12/29 01:13:03;;;;;;;6.50;5.95;;;;;;;;;;5072786;28;20048;-88
2022/12/29 01:15:30;;;;;;;8.88;8.05;;;;;;;;;;5072760;28;20455;-88
2022/12/29 01:17:56;;;;;;;8.48;7.78;;;;;;;;;;5057097;28;20045;-88
2022/12/29 01:20:23;;;;;;;5.32;4.82;;;;;;;;;;5032816;28;20450;-88
2022/12/29 01:22:49;;;;;;;7.47;6.85;;;;;;;;;;5033240;28;20049;-89
2022/12/29 01:25:16;;;;;;;4.93;4.55;;;;;;;;;;5033261;28;20053;-88
2022/12/29 01:27:42;;;;;;;7.05;5.45;;;;;;;;;;5032293;28;20541;-87
2022/12/29 01:30:11;;;;;;;10.02;7.50;;;;;;;;;;5032753;28;20099;-87
2022/12/29 01:32:37;;;;;;;7.82;7.18;;;;;;;;;;5032621;28;20061;-87
2022/12/29 01:35:04;;;;;;;5.55;5.13;;;;;;;;;;5061048;28;20102;-87
2022/12/29 01:37:31;;;;;;;9.05;6.32;;;;;;;;;;5072326;28;20049;-87
2022/12/29 01:39:57;;;;;;;5.50;4.22;;;;;;;;;;5072335;28;20566;-87
2022/12/29 01:42:25;;;;;;;8.35;7.18;;;;;;;;;;5072477;28;20094;-88
2022/12/29 01:44:53;;;;;;;6.32;5.38;;;;;;;;;;5072566;28;20094;-88
2022/12/29 01:47:27;;;;;;;6.57;5.88;;;;;;;;;;5073170;28;20056;-88
2022/12/29 01:49:54;;;;;;;6.90;6.32;;;;;;;;;;5072739;28;20052;-88
2022/12/29 01:52:21;;;;;;;6.00;5.18;;;;;;;;;;5065190;28;20494;-88
2022/12/29 01:54:49;;;;;;;6.57;4.57;;;;;;;;;;5072209;28;20090;-88
2022/12/29 01:57:19;;;;;;;7.78;6.90;;;;;;;;;;5072936;28;20082;-88
2022/12/29 01:59:50;;;;;;;7.65;6.90;;;;;;;;;;5072324;28;20571;-88
2022/12/29 02:02:16;;;;;;;5.78;5.38;;;;;;;;;;5072280;28;20064;-88
2022/12/29 02:04:44;;;;;;;7.68;5.70;;;;;;;;;;5072202;28;20102;-88
2022/12/29 02:07:14;;;;;;;7.85;7.07;;;;;;;;;;5072529;28;20133;-88
2022/12/29 02:09:41;;;;;;;4.88;4.47;;;;;;;;;;5065129;28;20053;-88
2022/12/29 02:12:08;;;;;;;5.40;5.00;;;;;;;;;;5072173;28;20048;-87
2022/12/29 02:14:34;;;;;;;3.88;3.67;;;;;;;;;;5072240;28;20110;-87
2022/12/29 02:17:08;;;;;;;3.03;2.80;;;;;;;;;;5072137;28;20048;-87
2022/12/29 02:19:43;;;;;;;5.22;4.82;;;;;;;;;;5072320;28;20044;-87
2022/12/29 02:22:17;;;;;;;5.50;5.20;;;;;;;;;;5072123;28;20122;-87
2022/12/29 02:24:53;;;;;;;5.97;5.57;;;;;;;;;;5073042;28;20071;-89
2022/12/29 02:27:28;;;;;;;11.43;6.47;;;;;;;;;;5066970;28;20564;-88
2022/12/29 02:30:12;;;;;;;7.55;6.85;;;;;;;;;;5056161;28;20673;-89
2022/12/29 02:32:43;;;;;;;8.02;7.30;;;;;;;;;;5055796;28;20091;-88
2022/12/29 02:35:14;;;;;;;9.43;6.78;;;;;;;;;;5055717;28;20564;-88
2022/12/29 02:37:43;;;;;;;8.45;6.45;;;;;;;;;;5055628;28;20045;-89
2022/12/29 02:40:18;;;;;;;9.02;8.10;;;;;;;;;;5055931;28;20103;-88
2022/12/29 02:42:48;;;;;;;9.23;7.72;;;;;;;;;;5055470;28;20051;-88
2022/12/29 02:45:19;;;;;;;7.53;6.88;;;;;;;;;;5060172;28;20452;-88
2022/12/29 02:47:49;;;;;;;9.48;8.65;;;;;;;;;;5055515;28;20465;-88
2022/12/29 02:50:17;;;;;;;11.38;8.27;;;;;;;;;;5055987;28;20049;-88
2022/12/29 02:52:47;;;;;;;6.68;6.28;;;;;;;;;;5055614;28;20049;-88
2022/12/29 02:55:13;;;;;;;11.30;6.13;;;;;;;;;;5055314;28;20051;-88
2022/12/29 02:57:39;;;;;;;8.48;7.85;;;;;;;;;;5055396;28;20553;-88
2022/12/29 03:00:08;;;;;;;8.68;7.82;;;;;;;;;;5055515;28;20056;-88
2022/12/29 03:02:40;;;;;;;11.88;10.80;;;;;;;;;;5060265;28;20045;-88
2022/12/29 03:05:15;;;;;;;7.07;6.45;;;;;;;;;;5055190;28;20048;-88
2022/12/29 03:07:46;;;;;;;10.93;8.32;;;;;;;;;;5055262;28;20122;-87
2022/12/29 03:10:19;;;;;;;8.43;7.70;;;;;;;;;;5055168;28;20044;-87
2022/12/29 03:18:21;;;;;;;9.07;6.88;;;;;;;;;;5066799;28;20055;-87
2022/12/29 03:20:52;;;;;;;6.95;6.35;;;;;;;;;;5074813;28;20555;-88
2022/12/29 03:23:19;;;;;;;7.53;6.63;;;;;;;;;;5074911;28;20074;-88
2022/12/29 03:25:47;;;;;;;9.23;6.45;;;;;;;;;;5074679;28;20056;-88
2022/12/29 03:28:14;;;;;;;10.18;9.48;;;;;;;;;;5074756;28;20094;-87
2022/12/29 03:30:42;;;;;;;8.85;8.25;;;;;;;;;;5074433;28;20052;-87
2022/12/29 03:33:10;;;;;;;7.70;6.95;;;;;;;;;;5074769;28;20060;-87
2022/12/29 03:35:38;;;;;;;11.48;10.13;;;;;;;;;;5062866;28;20041;-87
2022/12/29 03:38:10;;;;;;;10.48;8.85;;;;;;;;;;5034578;28;20046;-88
2022/12/29 03:40:38;;;;;;;5.82;5.32;;;;;;;;;;5034488;28;20055;-88
2022/12/29 03:43:05;;;;;;;6.15;5.57;;;;;;;;;;5034614;28;20095;-88
2022/12/29 03:45:32;;;;;;;9.38;5.80;;;;;;;;;;5034322;28;20549;-88
2022/12/29 03:47:58;;;;;;;7.90;7.30;;;;;;;;;;5035079;28;20061;-88
2022/12/29 03:50:25;;;;;;;8.07;7.38;;;;;;;;;;5034422;28;20491;-89
2022/12/29 03:52:51;;;;;;;8.95;7.68;;;;;;;;;;5040989;28;20098;-88
2022/12/29 03:55:19;;;;;;;10.77;7.93;;;;;;;;;;5053991;28;20079;-88
2022/12/29 03:57:45;;;;;;;15.60;6.30;;;;;;;;;;5054226;28;20049;-89
2022/12/29 04:00:13;;;;;;;6.70;5.55;;;;;;;;;;5053986;28;20053;-88
2022/12/29 04:02:39;;;;;;;8.60;7.95;;;;;;;;;;5054313;28;20136;-88
2022/12/29 04:05:06;;;;;;;9.60;6.03;;;;;;;;;;5053960;28;20049;-87
2022/12/29 04:07:33;;;;;;;8.38;7.68;;;;;;;;;;5053987;28;20048;-87
2022/12/29 04:09:59;;;;;;;4.80;4.40;;;;;;;;;;5053366;28;20139;-87
2022/12/29 04:12:27;;;;;;;9.60;4.38;;;;;;;;;;5054153;28;20395;-87
2022/12/29 04:14:53;;;;;;;6.07;5.53;;;;;;;;;;5053435;28;20045;-88
2022/12/29 04:17:20;;;;;;;6.68;5.63;;;;;;;;;;5053877;28;20501;-88
2022/12/29 04:19:46;;;;;;;7.88;6.95;;;;;;;;;;5054094;28;20053;-88
2022/12/29 04:22:13;;;;;;;8.35;7.75;;;;;;;;;;5053523;28;20056;-88
2022/12/29 04:24:39;;;;;;;6.35;5.82;;;;;;;;;;5053490;28;20402;-88
2022/12/29 04:27:06;;;;;;;5.93;5.40;;;;;;;;;;5056409;28;20040;-88
2022/12/29 04:29:34;;;;;;;7.88;7.25;;;;;;;;;;5035852;28;20099;-87
2022/12/29 04:32:00;;;;;;;7.78;7.18;;;;;;;;;;5033663;28;20103;-88
2022/12/29 04:34:27;;;;;;;6.40;5.93;;;;;;;;;;5033751;28;20103;-88
2022/12/29 04:36:53;;;;;;;11.32;7.88;;;;;;;;;;5033382;28;20045;-88
2022/12/29 04:39:20;;;;;;;7.65;6.20;;;;;;;;;;5033169;28;20117;-88
2022/12/29 04:41:46;;;;;;;7.07;6.18;;;;;;;;;;5033995;28;20053;-87
2022/12/29 04:44:13;;;;;;;7.18;6.45;;;;;;;;;;5043119;28;20128;-87
2022/12/29 04:46:40;;;;;;;7.30;6.70;;;;;;;;;;5053323;28;20087;-88
2022/12/29 04:49:08;;;;;;;9.57;8.65;;;;;;;;;;5052913;28;20449;-88
2022/12/29 04:51:34;;;;;;;9.98;8.90;;;;;;;;;;5053402;28;20052;-89
2022/12/29 04:54:01;;;;;;;10.07;9.18;;;;;;;;;;5053367;28;20051;-88
2022/12/29 04:56:27;;;;;;;9.32;8.32;;;;;;;;;;5053299;28;20060;-88
2022/12/29 04:58:54;;;;;;;10.63;8.35;;;;;;;;;;5053233;28;20048;-88
2022/12/29 05:01:20;;;;;;;9.05;7.60;;;;;;;;;;5056376;28;20052;-89
2022/12/29 05:03:50;;;;;;;8.73;7.63;;;;;;;;;;5072984;28;20452;-88
2022/12/29 05:06:16;;;;;;;8.07;7.43;;;;;;;;;;5073145;28;20053;-89
2022/12/29 05:08:43;;;;;;;8.88;8.07;;;;;;;;;;5073065;28;20482;-88
2022/12/29 05:11:09;;;;;;;6.30;5.57;;;;;;;;;;5073444;28;20056;-88
2022/12/29 05:13:36;;;;;;;8.55;6.00;;;;;;;;;;5072877;28;20099;-88
2022/12/29 05:16:02;;;;;;;8.40;7.68;;;;;;;;;;5072622;28;20473;-88
2022/12/29 05:18:29;;;;;;;9.10;8.27;;;;;;;;;;5059809;28;20098;-88
2022/12/29 05:20:57;;;;;;;8.98;8.40;;;;;;;;;;5052937;28;20045;-88
2022/12/29 05:23:23;;;;;;;9.90;8.18;;;;;;;;;;5052732;28;20045;-88
2022/12/29 05:25:50;;;;;;;10.15;9.15;;;;;;;;;;5052563;28;20094;-88
2022/12/29 05:28:16;;;;;;;8.40;7.57;;;;;;;;;;5052857;28;20052;-88
2022/12/29 05:30:42;;;;;;;7.80;7.30;;;;;;;;;;5052619;28;20052;-88
2022/12/29 05:33:11;;;;;;;7.25;6.22;;;;;;;;;;5052855;28;20483;-88
2022/12/29 05:35:38;;;;;;;11.95;8.25;;;;;;;;;;5053025;28;20047;-88
2022/12/29 05:38:05;;;;;;;6.72;6.22;;;;;;;;;;5052783;28;20111;-88
2022/12/29 05:40:32;;;;;;;7.90;7.00;;;;;;;;;;5052599;28;20045;-88
2022/12/29 05:42:58;;;;;;;8.88;6.95;;;;;;;;;;5052597;28;20507;-88
2022/12/29 05:45:25;;;;;;;10.45;9.43;;;;;;;;;;5052429;28;20045;-88
2022/12/29 05:47:52;;;;;;;8.60;8.10;;;;;;;;;;5052749;28;20075;-88
2022/12/29 05:50:18;;;;;;;9.73;8.73;;;;;;;;;;5051648;28;20068;-88
2022/12/29 05:52:45;;;;;;;9.50;8.73;;;;;;;;;;5050967;28;20495;-87
2022/12/29 05:55:13;;;;;;;12.73;8.65;;;;;;;;;;5052145;28;20104;-87
2022/12/29 05:57:39;;;;;;;7.45;6.57;;;;;;;;;;5052578;28;20067;-88
2022/12/29 06:00:06;;;;;;;10.95;7.88;;;;;;;;;;5053952;28;20106;-88
2022/12/29 06:02:33;;;;;;;9.82;7.97;;;;;;;;;;5056588;28;20486;-88
2022/12/29 06:04:59;;;;;;;11.40;8.40;;;;;;;;;;5056464;28;20102;-89
2022/12/29 06:07:26;;;;;;;8.30;7.53;;;;;;;;;;5058402;28;20114;-88
2022/12/29 06:09:53;;;;;;;9.88;7.82;;;;;;;;;;5056232;28;20057;-88
2022/12/29 06:12:20;;;;;;;9.38;7.18;;;;;;;;;;5056170;28;20490;-88
2022/12/29 06:14:47;;;;;;;9.70;8.80;;;;;;;;;;5056221;28;20387;-88
2022/12/29 06:17:13;;;;;;;9.43;5.82;;;;;;;;;;5056509;28;20049;-88
2022/12/29 06:19:40;;;;;;;8.90;6.13;;;;;;;;;;5041807;28;20453;-88
2022/12/29 06:22:07;;;;;;;9.63;8.25;;;;;;;;;;5036263;28;20100;-88
2022/12/29 06:24:33;;;;;;;7.95;7.18;;;;;;;;;;5068512;28;20071;-88
2022/12/29 06:27:00;;;;;;;8.05;7.32;;;;;;;;;;5075875;28;20094;-88
2022/12/29 06:29:28;;;;;;;8.10;7.40;;;;;;;;;;5075819;28;20113;-87
2022/12/29 06:31:57;;;;;;;13.02;8.85;;;;;;;;;;5075762;28;20136;-89
2022/12/29 06:34:24;;;;;;;6.78;6.28;;;;;;;;;;5071933;28;20507;-89
2022/12/29 06:36:50;;;;;;;7.95;7.18;;;;;;;;;;5056071;28;20044;-88
2022/12/29 06:39:17;;;;;;;7.47;6.38;;;;;;;;;;5055388;28;20102;-89
2022/12/29 06:41:43;;;;;;;14.07;6.85;;;;;;;;;;5036685;28;20053;-90
2022/12/29 06:44:10;;;;;;;7.32;6.45;;;;;;;;;;5036515;28;20099;-90
2022/12/29 06:46:38;;;;;;;8.85;7.53;;;;;;;;;;5055606;28;20045;-89
2022/12/29 06:49:04;;;;;;;5.75;5.25;;;;;;;;;;5055475;28;20056;-89
2022/12/29 06:51:31;;;;;;;7.97;6.07;;;;;;;;;;5054790;28;20107;-89
2022/12/29 06:53:59;;;;;;;8.60;7.03;;;;;;;;;;5055374;28;20053;-90
2022/12/29 06:56:25;;;;;;;8.82;7.40;;;;;;;;;;5051132;28;20052;-90
2022/12/29 06:58:52;;;;;;;6.85;6.32;;;;;;;;;;5055079;28;20053;-89
2022/12/29 07:01:18;;;;;;;8.02;7.32;;;;;;;;;;5055087;28;20049;-89
2022/12/29 07:03:46;;;;;;;9.73;8.75;;;;;;;;;;5054912;28;20490;-87
2022/12/29 07:06:13;;;;;;;8.15;6.07;;;;;;;;;;5054985;28;20462;-87
2022/12/29 07:08:39;;;;;;;8.35;7.68;;;;;;;;;;5055205;28;20090;-88
2022/12/29 07:11:06;;;;;;;10.50;8.98;;;;;;;;;;5049542;28;20049;-88
2022/12/29 07:13:32;;;;;;;10.85;10.02;;;;;;;;;;5046905;28;20049;-89
2022/12/29 07:15:59;;;;;;;9.43;8.52;;;;;;;;;;5054195;28;20095;-89
2022/12/29 07:18:25;;;;;;;9.25;8.35;;;;;;;;;;5054787;28;20087;-86
2022/12/29 07:20:53;;;;;;;8.38;7.68;;;;;;;;;;5054501;28;20486;-87
2022/12/29 07:23:20;;;;;;;8.13;7.38;;;;;;;;;;5054129;28;20564;-87
2022/12/29 07:25:46;;;;;;;7.53;6.82;;;;;;;;;;5054498;28;20100;-87
2022/12/29 07:28:13;;;;;;;7.82;7.10;;;;;;;;;;5054607;28;20051;-86
2022/12/29 07:30:40;;;;;;;11.77;10.73;;;;;;;;;;5048694;28;20049;-87
2022/12/29 07:33:07;;;;;;;11.48;8.80;;;;;;;;;;5054101;28;20445;-87
2022/12/29 07:35:34;;;;;;;9.30;7.80;;;;;;;;;;5054010;28;20045;-87
2022/12/29 07:38:02;;;;;;;12.85;10.45;;;;;;;;;;5053549;28;20048;-87
2022/12/29 07:40:28;;;;;;;9.35;7.88;;;;;;;;;;5059071;28;20624;-87
2022/12/29 07:42:55;;;;;;;10.23;9.00;;;;;;;;;;5053933;28;20044;-86
2022/12/29 07:45:21;;;;;;;14.50;10.38;;;;;;;;;;5053675;28;20557;-88
2022/12/29 07:47:48;;;;;;;10.73;9.25;;;;;;;;;;5060741;28;20052;-87
2022/12/29 07:50:15;;;;;;;11.73;10.65;;;;;;;;;;5073657;28;20106;-86
2022/12/29 07:52:41;;;;;;;11.38;8.07;;;;;;;;;;5073815;28;20048;-87
2022/12/29 07:55:10;;;;;;;10.98;10.02;;;;;;;;;;5073861;28;20048;-89
2022/12/29 07:57:36;;;;;;;10.23;9.32;;;;;;;;;;5071936;28;20466;-87
2022/12/29 08:00:03;;;;;;;14.63;13.07;;;;;;;;;;5073894;28;20109;-88
2022/12/29 08:02:30;;;;;;;10.73;9.93;;;;;;;;;;5073643;28;20049;-87
2022/12/29 08:04:56;;;;;;;13.63;10.20;;;;;;;;;;5046372;28;20046;-87
2022/12/29 08:07:23;;;;;;;10.18;9.15;;;;;;;;;;5033695;28;20466;-88
2022/12/29 08:09:49;;;;;;;10.15;8.68;;;;;;;;;;5033843;28;20053;-87
2022/12/29 08:12:17;;;;;;;13.82;10.43;;;;;;;;;;5034039;28;20103;-87
2022/12/29 08:14:44;;;;;;;15.32;10.70;;;;;;;;;;5033822;28;20053;-87
2022/12/29 08:17:10;;;;;;;13.65;12.57;;;;;;;;;;5033926;28;20045;-87
2022/12/29 08:19:37;;;;;;;6.10;5.60;;;;;;;;;;5033502;28;20049;-87
2022/12/29 08:22:04;;;;;;;6.47;5.93;;;;;;;;;;5065071;28;20090;-87
2022/12/29 08:24:30;;;;;;;10.02;7.00;;;;;;;;;;5073221;28;20041;-89
2022/12/29 08:26:56;;;;;;;10.10;7.88;;;;;;;;;;5072564;28;20056;-86
2022/12/29 08:29:24;;;;;;;8.13;6.75;;;;;;;;;;5072447;28;20053;-86
2022/12/29 08:31:51;;;;;;;10.27;9.32;;;;;;;;;;5038965;28;20049;-85
2022/12/29 08:34:17;;;;;;;8.63;7.15;;;;;;;;;;5044557;28;20052;-85
2022/12/29 08:36:44;;;;;;;6.97;6.25;;;;;;;;;;5035530;28;20457;-88
2022/12/29 08:39:10;;;;;;;8.40;7.57;;;;;;;;;;5040422;28;20049;-86
2022/12/29 08:41:37;;;;;;;7.97;7.20;;;;;;;;;;5032705;28;20495;-87
2022/12/29 08:44:03;;;;;;;8.40;7.60;;;;;;;;;;5033372;28;20126;-86
2022/12/29 08:46:31;;;;;;;7.00;6.38;;;;;;;;;;5032816;28;20103;-86
2022/12/29 08:48:58;;;;;;;14.00;7.95;;;;;;;;;;5032774;28;20057;-86
2022/12/29 08:51:24;;;;;;;7.85;7.25;;;;;;;;;;5046180;28;20076;-86
2022/12/29 08:53:51;;;;;;;11.00;8.43;;;;;;;;;;5052557;28;20110;-86
2022/12/29 08:56:17;;;;;;;19.35;11.00;;;;;;;;;;5052335;28;20131;-86
2022/12/29 08:58:44;;;;;;;10.57;8.43;;;;;;;;;;5052057;28;20052;-86
2022/12/29 09:01:10;;;;;;;9.88;9.23;;;;;;;;;;5052422;28;20395;-86
2022/12/29 09:03:38;;;;;;;7.20;6.15;;;;;;;;;;5051992;28;20049;-85
2022/12/29 09:06:05;;;;;;;9.48;8.68;;;;;;;;;;5052392;28;20041;-86
2022/12/29 09:08:31;;;;;;;7.40;6.85;;;;;;;;;;5051919;28;20552;-86
2022/12/29 09:11:06;;;;;;;10.48;9.27;;;;;;;;;;5033027;28;20049;-86
2022/12/29 09:13:32;;;;;;;11.85;9.90;;;;;;;;;;5031991;28;20053;-86
2022/12/29 09:15:59;;;;;;;7.93;7.07;;;;;;;;;;5032360;28;20053;-86
2022/12/29 09:18:26;;;;;;;9.10;8.30;;;;;;;;;;5032311;28;20049;-86
2022/12/29 09:20:58;;;;;;;12.32;10.65;;;;;;;;;;5032123;28;20057;-86
2022/12/29 09:23:24;;;;;;;12.82;11.07;;;;;;;;;;5032348;28;20132;-85
2022/12/29 09:25:51;;;;;;;7.65;6.85;;;;;;;;;;5032051;28;20045;-86
2022/12/29 09:28:17;;;;;;;9.35;8.63;;;;;;;;;;5047080;28;20463;-85
2022/12/29 09:30:44;;;;;;;13.57;10.05;;;;;;;;;;5052064;28;20102;-87
2022/12/29 09:33:10;;;;;;;9.98;8.80;;;;;;;;;;5052033;28;20053;-87
2022/12/29 09:35:38;;;;;;;15.30;12.73;;;;;;;;;;5051688;28;20048;-86
2022/12/29 09:38:06;;;;;;;10.20;7.38;;;;;;;;;;5051538;28;20461;-86
2022/12/29 09:40:33;;;;;;;8.43;7.72;;;;;;;;;;5051675;28;20045;-86
2022/12/29 09:43:17;;;;;;;14.23;11.63;;;;;;;;;;5052641;28;20053;-86
2022/12/29 09:45:45;;;;;;;10.15;9.25;;;;;;;;;;5053250;28;20037;-86
2022/12/29 09:48:15;;;;;;;6.35;5.80;;;;;;;;;;5053406;28;20091;-85
2022/12/29 09:50:44;;;;;;;15.93;10.30;;;;;;;;;;5052336;28;20053;-86
2022/12/29 09:53:15;;;;;;;15.80;8.32;;;;;;;;;;5052220;28;20452;-86
2022/12/29 09:55:44;;;;;;;11.32;10.25;;;;;;;;;;5052128;28;20486;-85
2022/12/29 09:58:13;;;;;;;12.85;9.57;;;;;;;;;;5052156;28;20044;-85
2022/12/29 10:00:41;;;;;;;12.30;11.10;;;;;;;;;;5052209;28;20462;-86
2022/12/29 10:03:14;;;;;;;9.38;8.57;;;;;;;;;;5052912;28;20470;-86
2022/12/29 10:05:47;;;;;;;12.27;10.93;;;;;;;;;;5052100;28;20056;-86
2022/12/29 10:08:22;;;;;;;10.93;9.48;;;;;;;;;;5051579;28;20106;-86
2022/12/29 10:10:51;;;;;;;9.88;9.18;;;;;;;;;;5051693;28;20049;-87
2022/12/29 10:13:24;;;;;;;11.77;9.63;;;;;;;;;;5051823;28;20107;-86
2022/12/29 10:15:56;;;;;;;9.55;8.60;;;;;;;;;;5051383;28;20486;-86
2022/12/29 10:18:46;;;;;;;13.90;10.82;;;;;;;;;;5051555;28;20048;-86
2022/12/29 10:21:20;;;;;;;11.50;7.47;;;;;;;;;;5055632;28;20549;-86
2022/12/29 10:23:50;;;;;;;14.05;9.27;;;;;;;;;;5071670;28;20056;-86
2022/12/29 10:26:19;;;;;;;8.93;6.82;;;;;;;;;;5071321;28;20052;-86
2022/12/29 10:28:48;;;;;;;9.00;8.30;;;;;;;;;;5071377;28;20048;-87
2022/12/29 10:31:19;;;;;;;9.85;8.88;;;;;;;;;;5071270;28;20106;-86
2022/12/29 10:33:47;;;;;;;10.07;9.07;;;;;;;;;;5071592;28;20056;-86
2022/12/29 10:36:16;;;;;;;9.10;8.35;;;;;;;;;;5071075;28;20510;-87
2022/12/29 10:38:47;;;;;;;11.15;10.25;;;;;;;;;;5066766;28;20052;-86
2022/12/29 10:41:17;;;;;;;9.50;8.68;;;;;;;;;;5071168;28;20049;-87
2022/12/29 10:43:46;;;;;;;6.03;5.50;;;;;;;;;;5071377;28;20049;-87
2022/12/29 10:46:14;;;;;;;10.45;9.70;;;;;;;;;;5062574;28;20049;-86
2022/12/29 10:48:45;;;;;;;7.65;7.05;;;;;;;;;;5054695;28;20115;-87
2022/12/29 10:51:11;;;;;;;;;;;;;;;;;;5055098;28;20053;-87
2022/12/29 10:53:39;;;;;;;9.20;7.80;;;;;;;;;;5054402;28;19921;-87
2022/12/29 10:56:10;;;;;;;8.70;8.00;;;;;;;;;;5071220;28;20094;-87
2022/12/29 10:58:38;;;;;;;7.57;7.05;;;;;;;;;;5074513;28;20490;-87
2022/12/29 11:01:05;;;;;;;4.57;4.22;;;;;;;;;;5074626;28;20068;-87
2022/12/29 11:03:55;;;;;;;8.65;8.02;;;;;;;;;;5074793;28;20130;-87
2022/12/29 11:06:24;;;;;;;6.60;6.07;;;;;;;;;;5049340;28;20064;-87
2022/12/29 11:08:53;;;;;;;7.43;6.82;;;;;;;;;;5074582;28;20139;-87
2022/12/29 11:11:23;;;;;;;3.67;3.38;;;;;;;;;;5061929;28;20095;-87
2022/12/29 11:13:56;;;;;;;3.38;3.08;;;;;;;;;;5054362;28;20445;-87
2022/12/29 11:16:28;;;;;;;4.72;3.97;;;;;;;;;;5054415;28;20110;-87
2022/12/29 11:18:54;;;;;;;2.92;2.72;;;;;;;;;;5054489;28;20044;-87
2022/12/29 11:21:39;;;;;;;4.03;3.80;;;;;;;;;;5054449;28;20057;-87
2022/12/29 11:24:18;;;;;;;4.57;4.20;;;;;;;;;;5053845;28;20057;-85
2022/12/29 11:26:45;;;;;;;4.35;4.13;;;;;;;;;;5058323;28;20084;-86
2022/12/29 11:29:18;;;;;;;4.63;4.20;;;;;;;;;;5074598;28;20056;-85
2022/12/29 11:31:45;;;;;;;3.33;3.08;;;;;;;;;;5066595;28;20579;-85
2022/12/29 11:34:18;;;;;;;4.70;4.50;;;;;;;;;;5054381;28;20135;-86
2022/12/29 11:36:44;;;;;;;4.47;4.18;;;;;;;;;;5054060;28;20045;-85
2022/12/29 11:39:23;;;;;;;4.93;4.63;;;;;;;;;;5054309;28;20103;-85
2022/12/29 11:41:52;;;;;;;4.03;3.83;;;;;;;;;;5053889;28;20103;-85
2022/12/29 11:44:20;;;;;;;6.10;5.70;;;;;;;;;;5062585;28;20501;-85
2022/12/29 11:46:49;;;;;;;4.90;4.50;;;;;;;;;;5073985;28;20102;-86
2022/12/29 11:49:20;;;;;;;5.85;4.60;;;;;;;;;;5059724;28;20099;-85
2022/12/29 11:51:48;;;;;;;4.68;4.30;;;;;;;;;;5046263;28;20053;-85
2022/12/29 11:54:17;;;;;;;4.05;3.85;;;;;;;;;;5033552;28;20053;-85
2022/12/29 11:56:44;;;;;;;4.32;3.92;;;;;;;;;;5032418;28;20107;-85
2022/12/29 11:59:29;;;;;;;4.75;4.45;;;;;;;;;;5033540;28;20491;-85
2022/12/29 12:01:58;;;;;;;3.28;2.97;;;;;;;;;;5043433;28;20391;-86
2022/12/29 12:04:27;;;;;;;6.65;6.25;;;;;;;;;;5052794;28;20078;-85
2022/12/29 12:06:59;;;;;;;6.55;3.90;;;;;;;;;;5046330;28;20191;-86
2022/12/29 12:09:28;;;;;;;4.30;3.97;;;;;;;;;;5033691;28;20127;-85
2022/12/29 12:11:55;;;;;;;4.85;4.53;;;;;;;;;;5040386;28;20053;-85
2022/12/29 12:14:24;;;;;;;5.53;5.18;;;;;;;;;;5053277;28;20107;-85
2022/12/29 12:16:53;;;;;;;3.70;3.50;;;;;;;;;;5053104;28;20045;-85
2022/12/29 12:19:26;;;;;;;3.38;3.17;;;;;;;;;;5064417;28;20056;-86
2022/12/29 12:21:56;;;;;;;4.13;3.83;;;;;;;;;;5070157;28;20044;-85
2022/12/29 12:24:31;;;;;;;4.35;4.05;;;;;;;;;;5073435;28;20056;-86
2022/12/29 12:27:00;;;;;;;4.22;3.85;;;;;;;;;;5052946;28;20041;-85
2022/12/29 12:29:30;;;;;;;4.68;4.38;;;;;;;;;;5053089;28;20517;-85
2022/12/29 12:31:58;;;;;;;4.30;4.00;;;;;;;;;;5052002;28;20387;-85
2022/12/29 12:34:28;;;;;;;4.45;3.42;;;;;;;;;;5045850;28;20114;-85
2022/12/29 12:37:01;;;;;;;5.47;5.05;;;;;;;;;;5072018;28;20051;-86
2022/12/29 12:39:33;;;;;;;3.88;3.67;;;;;;;;;;5041300;28;20099;-84
2022/12/29 12:42:04;;;;;;;5.65;5.25;;;;;;;;;;5032466;28;20462;-86
2022/12/29 12:44:37;;;;;;;2.60;2.45;;;;;;;;;;5048035;28;20049;-85
2022/12/29 12:47:15;;;;;;;2.75;2.28;;;;;;;;;;5043298;28;20049;-86
2022/12/29 12:50:00;;;;;;;4.88;4.57;;;;;;;;;;5049294;28;20045;-85
2022/12/29 12:52:31;;;;;;;2.75;2.65;;;;;;;;;;5053045;28;20457;-85
2022/12/29 12:55:08;;;;;;;3.67;3.22;;;;;;;;;;5036669;28;20057;-85
2022/12/29 12:57:41;;;;;;;3.92;3.63;;;;;;;;;;5032635;28;20056;-85
2022/12/29 13:00:10;;;;;;;3.95;3.65;;;;;;;;;;5032524;28;20046;-85
2022/12/29 13:02:40;;;;;;;5.72;5.25;;;;;;;;;;5032302;28;20111;-85
2022/12/29 13:05:24;;;;;;;4.28;4.05;;;;;;;;;;5051357;28;20049;-85
2022/12/29 13:07:56;;;;;;;5.25;4.95;;;;;;;;;;5051460;28;20111;-86
2022/12/29 13:10:31;;;;;;;3.22;3.03;;;;;;;;;;5043511;28;20117;-85
2022/12/29 13:13:04;;;;;;;5.55;4.95;;;;;;;;;;5050568;28;20045;-85
2022/12/29 13:15:39;;;;;;;5.95;3.22;;;;;;;;;;5032121;28;20092;-85
2022/12/29 13:18:09;;;;;;;3.15;2.92;;;;;;;;;;5031467;28;20103;-85
2022/12/29 13:20:40;;;;;;;4.68;4.25;;;;;;;;;;5032207;28;20107;-85
2022/12/29 13:23:11;;;;;;;3.58;3.17;;;;;;;;;;5031928;28;20503;-85
2022/12/29 13:25:41;;;;;;;2.83;2.60;;;;;;;;;;5032747;28;20111;-86
2022/12/29 13:28:10;;;;;;;3.20;3.00;;;;;;;;;;5035860;28;20092;-85
2022/12/29 13:30:40;;;;;;;2.75;2.55;;;;;;;;;;5031578;28;20057;-86
2022/12/29 13:33:12;;;;;;;3.30;3.08;;;;;;;;;;5031675;28;20111;-85
2022/12/29 13:35:50;;;;;;;4.13;3.75;;;;;;;;;;5031730;28;20064;-85
2022/12/29 13:38:20;;;;;;;3.13;2.63;;;;;;;;;;5033905;28;20050;-85
2022/12/29 13:40:48;;;;;;;5.22;4.18;;;;;;;;;;5052284;28;20053;-85
2022/12/29 13:43:15;;;;;;;4.55;4.25;;;;;;;;;;5052041;28;20053;-85
2022/12/29 13:45:42;;;;;;;3.42;2.92;;;;;;;;;;5051903;28;20616;-86
2022/12/29 13:48:14;;;;;;;2.85;2.65;;;;;;;;;;5051385;28;20061;-86
2022/12/29 13:50:41;;;;;;;3.65;3.25;;;;;;;;;;5031980;28;20092;-85
2022/12/29 13:53:12;;;;;;;4.03;3.70;;;;;;;;;;5031859;28;20076;-85
2022/12/29 13:55:41;;;;;;;5.10;3.83;;;;;;;;;;5031733;28;20041;-87
2022/12/29 13:58:13;;;;;;;5.45;5.05;;;;;;;;;;5034573;28;20053;-84
2022/12/29 14:00:45;;;;;;;5.80;5.43;;;;;;;;;;5055146;28;20555;-86
2022/12/29 14:03:18;;;;;;;3.10;2.47;;;;;;;;;;5071986;28;20049;-86
2022/12/29 14:05:45;;;;;;;5.07;2.70;;;;;;;;;;5031912;28;20061;-82
2022/12/29 14:08:16;;;;;;;4.63;4.35;;;;;;;;;;5032743;28;20054;-86
2022/12/29 14:10:49;;;;;;;5.95;4.78;;;;;;;;;;5032081;28;20049;-86
2022/12/29 14:13:16;;;;;;;4.40;4.13;;;;;;;;;;5032227;28;20053;-84
2022/12/29 14:15:44;;;;;;;2.42;2.25;;;;;;;;;;5033230;28;20580;-86
2022/12/29 14:18:16;;;;;;;3.83;3.17;;;;;;;;;;5043216;28;20379;-86
2022/12/29 14:20:49;;;;;;;6.13;4.47;;;;;;;;;;5051226;28;20507;-83
2022/12/29 14:23:17;;;;;;;2.90;2.70;;;;;;;;;;5055773;28;20103;-83
2022/12/29 14:25:57;;;;;;;3.75;3.45;;;;;;;;;;5035695;28;20473;-85
2022/12/29 14:28:24;;;;;;;4.68;4.32;;;;;;;;;;5035874;28;20099;-84
2022/12/29 14:30:51;;;;;;;3.65;3.35;;;;;;;;;;5035652;28;20042;-84
2022/12/29 14:33:18;;;;;;;4.40;4.03;;;;;;;;;;5045078;28;20057;-84
2022/12/29 14:35:49;;;;;;;4.07;3.78;;;;;;;;;;5055684;28;20060;-85
2022/12/29 14:38:20;;;;;;;4.45;4.15;;;;;;;;;;5057133;28;20063;-84
2022/12/29 14:40:47;;;;;;;4.47;4.07;;;;;;;;;;5055820;28;20049;-84
2022/12/29 14:43:19;;;;;;;4.72;4.22;;;;;;;;;;5055831;28;20070;-84
2022/12/29 14:45:52;;;;;;;3.15;2.95;;;;;;;;;;5055863;28;20099;-84
2022/12/29 14:48:36;;;;;;;3.25;2.95;;;;;;;;;;5055303;28;20461;-84
2022/12/29 14:51:03;;;;;;;2.83;2.70;;;;;;;;;;5035879;28;20049;-84
2022/12/29 14:53:47;;;;;;;5.55;5.00;;;;;;;;;;5043224;28;20497;-84
2022/12/29 14:56:15;;;;;;;2.67;2.55;;;;;;;;;;5035399;28;20061;-85
2022/12/29 14:58:45;;;;;;;4.40;4.10;;;;;;;;;;5034942;28;20041;-84
2022/12/29 15:01:18;;;;;;;2.90;2.70;;;;;;;;;;5035184;28;20426;-84
2022/12/29 15:03:45;;;;;;;4.35;4.07;;;;;;;;;;5036067;28;20053;-84
2022/12/29 15:06:16;;;;;;;4.25;4.05;;;;;;;;;;5054965;28;20472;-84
2022/12/29 15:08:47;;;;;;;7.43;2.90;;;;;;;;;;5054006;28;20068;-86
2022/12/29 15:11:15;;;;;;;3.30;3.05;;;;;;;;;;5039798;28;20565;-86
2022/12/29 15:13:43;;;;;;;3.40;3.20;;;;;;;;;;5034863;28;20045;-84
2022/12/29 15:16:24;;;;;;;3.97;3.67;;;;;;;;;;5035016;28;20111;-85
2022/12/29 15:18:50;;;;;;;5.07;3.05;;;;;;;;;;5034582;28;20514;-85